17:39
Airports
History
Links
Donate
Help keep this website running!
PayPal
Bitcoin
This page is community maintained. The information is intended for PC simulator navigation or reference.
Always use approved charts for navigation.
ENHF
HammerfestEdited 30-Jun-2011
Hammerfest (ENHF)
Hammerfest, Finnmark, Norway (9600)
(C)
Lat/Lng:70° 40' 46.49" N / 23° 40' 5.58" E
70.679581 / 23.668217
Elevation:266'ft / 81mMSL
ID / ICAO:ENHF
Runways:1
Longest:05-23
Asphalt 885m / 2,904ft
Controlled:Yes
Beacon:White-Green
(Edited 2011-06-30) [ Sign in to Edit ]
METAR17:20 GMT 2017-09-21
Altimeter: 30.36
Visibility: 6.2 statute miles
Wind: 12 knots (from 190°)
Temp: 8°c / 46°f
Humidity: 65.8%

METAR: ENHF 211720Z 19012KT CAVOK 08/02 Q1028 RMK WIND 1254FT 19024KT

(Powered by phpweather)
Nearby VORs <50NM
Nearby NDBs
Runway 05 / 23
Dimensions:885.1 x 29.9m 2904' x 98'ft
Surface:Asphalt
Edge Lights:Medium intensity
Runway 05 [A]Runway 23 [B]
Heading:056°TH 236°TH
Lat:
Lng:
70° 40' 38.7"N
23° 39' 29.34"E
70° 40' 54.28"N
23° 40' 41.83"E
ALS:RAILRAIL
User Notes and Comments
70° 40' 46.49" N / 23° 40' 5.58" E
Distance To
Airport ID:
Nearby Airports
(U) HASVIK 37.5 NM
ENHK WSW 249°
(C) ALTA 49.0 NM
ENAT ( WX ) S 188°
(C) BANAK 51.9 NM
ENNA ( WX ) SE 144°
(C) Honningsvaag Valan 57.2 NM
ENHV ( WX ) ENE 66°
(C) Sorkjosen 88.3 NM
ENSR ( WX ) SW 225°
(C) Mehamn 97.3 NM
ENMH ENE 75°
(C) Kautokeino 114.2 NM
ENKA S 187°
VFR Chart
Flight Planning at SkyVector.com